Mans de San German, Puerto Rico
Current Conditions -  °F | °C
As of 9:50 AM on Tuesday 27 Jan 2015 (Local Time) from TJBQ Reporting Station
Clear Clear  
Wind Chill: 81°   Ceiling: Unl
Heat Index: 84°   Visibility: 10mi
Dew Point: 70°   Wind: 3mph
Humidity: 70%   Direction: 360°N
Pressure: 30.05"   Gusts: NA
Location:  18.0846°N, 67.0463°W
Report Text: TJBQ 271350Z 36003KT 10SM SKC 27/21 A3005 RMK RWY08 ATIS T
Loading
Personal Weather Stations






























Interactive Weather Map New forecast layout! Learn more

10-Day Weather Forecast

Advertisements
Track Severe Weather on mobile